(°C)
(°C)
-0°
-1°
-2°
-3°
ENE
ENE
ENE
ENE
ENE
ENE
ENE
(km/h)
23-39
23-39
24-39
23-42
23-40
22-36
22-39
(mm)
0
0
0.7
0
0
0
0.4
(%)
72
65
78
60
46
47
79

Elevación del sol

/ -12.7°
sun-icon
UV 1
07:06
19:08
Gibosa menguante (242°)
20:35
13:32

METAR a 57.92°N 56.02°E (USPP)

Hora Condiciones Temperatura/
Punto de condensación
Viento Visibilidad Tiempo Nubes Presión Cambiar Bruto
VFR 9°C / 4°C 110º 14kt >10km - Scattered Clouds 2800ft 1014 No Significant change. Runway 03: Damp, 51-100% contamination with <1mm, friction coefficient 0.55. USPP 261500Z 11007MPS 9999 SCT028 09/04 Q1014 R03/190055 NOSIG RMK QFE750
VFR 9°C / 5°C 100º 14kt >10km - Scattered Clouds 2800ft 1014 No Significant change. Runway 03: Damp, 51-100% contamination with <1mm, friction coefficient 0.55. USPP 261430Z 10007MPS 9999 SCT028 09/05 Q1014 R03/190055 NOSIG RMK QFE750
VFR 9°C / 5°C 100º 16kt >10km - Scattered Clouds 2800ft 1013 No Significant change. Runway 03: Damp, 51-100% contamination with <1mm, friction coefficient 0.55. USPP 261400Z 10008MPS 9999 SCT028 09/05 Q1013 R03/190055 NOSIG RMK QFE749
VFR 9°C / 5°C 100º 12kt >10km - Scattered Clouds 4600ft 1013 No Significant change. Runway 03: Damp, 51-100% contamination with <1mm, friction coefficient 0.55. USPP 261330Z 10006MPS 9999 SCT046 09/05 Q1013 R03/190055 NOSIG RMK QFE749
VFR 9°C / 5°C 100º 14kt >10km - Scattered Clouds 2500ft 1013 No Significant change. Runway 03: Damp, 51-100% contamination with <1mm, friction coefficient 0.55. USPP 261300Z 10007MPS 9999 SCT025 09/05 Q1013 R03/190055 NOSIG RMK QFE749
VFR 9°C / 5°C 90º 16kt >10km - Clouds and Visibility OK 1012 No Significant change. Runway 03: Damp, 51-100% contamination with <1mm, friction coefficient 0.55. USPP 261230Z 09008MPS CAVOK 09/05 Q1012 R03/190055 NOSIG RMK QFE749
VFR 10°C / 5°C 90º 16kt >10km - Clouds and Visibility OK 1012 No Significant change. Runway 03: Damp, 51-100% contamination with <1mm, friction coefficient 0.55. USPP 261200Z 09008MPS CAVOK 10/05 Q1012 R03/190055 NOSIG RMK QFE748
VFR 10°C / 4°C 100º 17kt. Wind Shear present on Runway 03. >10km - Clouds and Visibility OK 1012 No Significant change. Runway 03: Damp, 51-100% contamination with <1mm, friction coefficient 0.55. USPP 261130Z 10009MPS CAVOK 10/04 Q1012 WS R03 R03/190055 NOSIG RMK QFE748
VFR 11°C / 4°C 100º 12kt. Wind Shear present on Runway 03. >10km - Clouds and Visibility OK 1012 No Significant change. Runway 03: Damp, 51-100% contamination with <1mm, friction coefficient 0.55. USPP 261100Z 10006MPS CAVOK 11/04 Q1012 WS R03 R03/190055 NOSIG RMK QFE748
VFR 11°C / 4°C 100º 10kt >10km - Clouds and Visibility OK 1012 No Significant change. Runway 03: Damp, 51-100% contamination with <1mm, friction coefficient 0.55. USPP 261030Z 10005MPS CAVOK 11/04 Q1012 R03/190055 NOSIG RMK QFE748
VFR 11°C / 4°C 110º 12kt. Wind Shear present on Runway 03. >10km - Clouds and Visibility OK 1012 No Significant change. Runway 03: Damp, 51-100% contamination with <1mm, friction coefficient 0.55. USPP 261000Z 11006MPS CAVOK 11/04 Q1012 WS R03 R03/190055 NOSIG RMK QFE748
VFR 11°C / 4°C 100º 12kt. Wind Shear present on Runway 03. >10km - Clouds and Visibility OK 1011 No Significant change. Runway 03: Damp, 51-100% contamination with <1mm, friction coefficient 0.55. USPP 260930Z 10006MPS CAVOK 11/04 Q1011 WS R03 R03/190055 NOSIG RMK QFE748
VFR 10°C / 4°C 100º 12kt >10km - Clouds and Visibility OK 1011 No Significant change. Runway 03: Damp, 51-100% contamination with <1mm, friction coefficient 0.55. USPP 260900Z 10006MPS CAVOK 10/04 Q1011 R03/190055 NOSIG RMK QFE748
VFR 10°C / 3°C 110º 14kt >10km - Clouds and Visibility OK 1011 No Significant change. Runway 03: Damp, 51-100% contamination with <1mm, friction coefficient 0.55. USPP 260830Z 11007MPS CAVOK 10/03 Q1011 R03/190055 NOSIG RMK QFE748
VFR 10°C / 3°C 90º 12kt >10km - Clouds and Visibility OK 1011 No Significant change. Runway 03: Damp, 51-100% contamination with <1mm, friction coefficient 0.55. USPP 260800Z 09006MPS CAVOK 10/03 Q1011 R03/190055 NOSIG RMK QFE748
VFR 10°C / 4°C 90º 12kt >10km - Clouds and Visibility OK 1011 No Significant change. Runway 03: Damp, 51-100% contamination with <1mm, friction coefficient 0.55. USPP 260730Z 09006MPS CAVOK 10/04 Q1011 R03/190055 NOSIG RMK QFE748
VFR 9°C / 4°C 90º 12kt >10km Light Rain 1.00mm precipitation Vertical Visibility of 0ft. 1011 No Significant change. Runway 03: Damp, 51-100% contamination with <1mm, friction coefficient 0.55. USPP 260700Z 09006MPS 9999 -RA NSC 09/04 Q1011 R03/190055 NOSIG RMK QFE748
VFR 9°C / 4°C 90º 14kt >10km Light Rain 1.00mm precipitation Vertical Visibility of 0ft. 1011 No Significant change. Runway 03: Damp, 51-100% contamination with <1mm, friction coefficient 0.55. USPP 260630Z 09007MPS 9999 -RA NSC 09/04 Q1011 R03/190055 NOSIG RMK QFE748
VFR 9°C / 4°C 90º 14kt >10km - Clouds and Visibility OK 1011 No Significant change. Runway 03: Damp, 51-100% contamination with <1mm, friction coefficient 0.55. USPP 260600Z 09007MPS CAVOK 09/04 Q1011 R03/190055 NOSIG RMK QFE748
VFR 9°C / 5°C 80º 12kt >10km - Clouds and Visibility OK 1011 No Significant change. Runway 03: Damp, 51-100% contamination with <1mm, friction coefficient 0.55. USPP 260530Z 08006MPS CAVOK 09/05 Q1011 R03/190055 NOSIG RMK QFE748
VFR 9°C / 5°C 100º 12kt >10km - Clouds and Visibility OK 1012 No Significant change. Runway 03: Damp, 51-100% contamination with <1mm, friction coefficient 0.55. USPP 260500Z 10006MPS CAVOK 09/05 Q1012 R03/190055 NOSIG RMK QFE748
VFR 9°C / 6°C 110º 14kt >10km Light Rain 1.00mm precipitation Vertical Visibility of 0ft. 1012 No Significant change. Runway 21: Damp, 51-100% contamination with <1mm, friction coefficient 0.55. USPP 260430Z 11007MPS 9999 -RA NSC 09/06 Q1012 R21/190055 NOSIG RMK QFE748
VFR 9°C / 5°C 120º 14kt >10km Light Rain 1.00mm precipitation Vertical Visibility of 0ft. 1012 No Significant change. Runway 21: Damp, 51-100% contamination with <1mm, friction coefficient 0.55. USPP 260400Z 12007MPS 9999 -RA NSC 09/05 Q1012 R21/190055 NOSIG RMK QFE748
VFR 9°C / 5°C 120º 16kt >10km - Clouds and Visibility OK 1012 No Significant change. Runway 21: Damp, 51-100% contamination with <1mm, friction coefficient 0.55. USPP 260330Z 12008MPS CAVOK 09/05 Q1012 R21/190055 NOSIG RMK QFE748

VFR

9°C / 4°C

[Más]
Viento 110º 14kt
Visibilidad >10km
Tiempo -
Nubes Scattered Clouds 2800ft
Presión 1014
Cambiar No Significant change. Runway 03: Damp, 51-100% contamination with <1mm, friction coefficient 0.55.
Bruto USPP 261500Z 11007MPS 9999 SCT028 09/04 Q1014 R03/190055 NOSIG RMK QFE750

VFR

9°C / 5°C

[Más]
Viento 100º 14kt
Visibilidad >10km
Tiempo -
Nubes Scattered Clouds 2800ft
Presión 1014
Cambiar No Significant change. Runway 03: Damp, 51-100% contamination with <1mm, friction coefficient 0.55.
Bruto USPP 261430Z 10007MPS 9999 SCT028 09/05 Q1014 R03/190055 NOSIG RMK QFE750

VFR

9°C / 5°C

[Más]
Viento 100º 16kt
Visibilidad >10km
Tiempo -
Nubes Scattered Clouds 2800ft
Presión 1013
Cambiar No Significant change. Runway 03: Damp, 51-100% contamination with <1mm, friction coefficient 0.55.
Bruto USPP 261400Z 10008MPS 9999 SCT028 09/05 Q1013 R03/190055 NOSIG RMK QFE749

VFR

9°C / 5°C

[Más]
Viento 100º 12kt
Visibilidad >10km
Tiempo -
Nubes Scattered Clouds 4600ft
Presión 1013
Cambiar No Significant change. Runway 03: Damp, 51-100% contamination with <1mm, friction coefficient 0.55.
Bruto USPP 261330Z 10006MPS 9999 SCT046 09/05 Q1013 R03/190055 NOSIG RMK QFE749

VFR

9°C / 5°C

[Más]
Viento 100º 14kt
Visibilidad >10km
Tiempo -
Nubes Scattered Clouds 2500ft
Presión 1013
Cambiar No Significant change. Runway 03: Damp, 51-100% contamination with <1mm, friction coefficient 0.55.
Bruto USPP 261300Z 10007MPS 9999 SCT025 09/05 Q1013 R03/190055 NOSIG RMK QFE749

VFR

9°C / 5°C

[Más]
Viento 90º 16kt
Visibilidad >10km
Tiempo -
Nubes Clouds and Visibility OK
Presión 1012
Cambiar No Significant change. Runway 03: Damp, 51-100% contamination with <1mm, friction coefficient 0.55.
Bruto USPP 261230Z 09008MPS CAVOK 09/05 Q1012 R03/190055 NOSIG RMK QFE749

VFR

10°C / 5°C

[Más]
Viento 90º 16kt
Visibilidad >10km
Tiempo -
Nubes Clouds and Visibility OK
Presión 1012
Cambiar No Significant change. Runway 03: Damp, 51-100% contamination with <1mm, friction coefficient 0.55.
Bruto USPP 261200Z 09008MPS CAVOK 10/05 Q1012 R03/190055 NOSIG RMK QFE748

VFR

10°C / 4°C

[Más]
Viento 100º 17kt. Wind Shear present on Runway 03.
Visibilidad >10km
Tiempo -
Nubes Clouds and Visibility OK
Presión 1012
Cambiar No Significant change. Runway 03: Damp, 51-100% contamination with <1mm, friction coefficient 0.55.
Bruto USPP 261130Z 10009MPS CAVOK 10/04 Q1012 WS R03 R03/190055 NOSIG RMK QFE748

VFR

11°C / 4°C

[Más]
Viento 100º 12kt. Wind Shear present on Runway 03.
Visibilidad >10km
Tiempo -
Nubes Clouds and Visibility OK
Presión 1012
Cambiar No Significant change. Runway 03: Damp, 51-100% contamination with <1mm, friction coefficient 0.55.
Bruto USPP 261100Z 10006MPS CAVOK 11/04 Q1012 WS R03 R03/190055 NOSIG RMK QFE748

VFR

11°C / 4°C

[Más]
Viento 100º 10kt
Visibilidad >10km
Tiempo -
Nubes Clouds and Visibility OK
Presión 1012
Cambiar No Significant change. Runway 03: Damp, 51-100% contamination with <1mm, friction coefficient 0.55.
Bruto USPP 261030Z 10005MPS CAVOK 11/04 Q1012 R03/190055 NOSIG RMK QFE748

VFR

11°C / 4°C

[Más]
Viento 110º 12kt. Wind Shear present on Runway 03.
Visibilidad >10km
Tiempo -
Nubes Clouds and Visibility OK
Presión 1012
Cambiar No Significant change. Runway 03: Damp, 51-100% contamination with <1mm, friction coefficient 0.55.
Bruto USPP 261000Z 11006MPS CAVOK 11/04 Q1012 WS R03 R03/190055 NOSIG RMK QFE748

VFR

11°C / 4°C

[Más]
Viento 100º 12kt. Wind Shear present on Runway 03.
Visibilidad >10km
Tiempo -
Nubes Clouds and Visibility OK
Presión 1011
Cambiar No Significant change. Runway 03: Damp, 51-100% contamination with <1mm, friction coefficient 0.55.
Bruto USPP 260930Z 10006MPS CAVOK 11/04 Q1011 WS R03 R03/190055 NOSIG RMK QFE748

VFR

10°C / 4°C

[Más]
Viento 100º 12kt
Visibilidad >10km
Tiempo -
Nubes Clouds and Visibility OK
Presión 1011
Cambiar No Significant change. Runway 03: Damp, 51-100% contamination with <1mm, friction coefficient 0.55.
Bruto USPP 260900Z 10006MPS CAVOK 10/04 Q1011 R03/190055 NOSIG RMK QFE748

VFR

10°C / 3°C

[Más]
Viento 110º 14kt
Visibilidad >10km
Tiempo -
Nubes Clouds and Visibility OK
Presión 1011
Cambiar No Significant change. Runway 03: Damp, 51-100% contamination with <1mm, friction coefficient 0.55.
Bruto USPP 260830Z 11007MPS CAVOK 10/03 Q1011 R03/190055 NOSIG RMK QFE748

VFR

10°C / 3°C

[Más]
Viento 90º 12kt
Visibilidad >10km
Tiempo -
Nubes Clouds and Visibility OK
Presión 1011
Cambiar No Significant change. Runway 03: Damp, 51-100% contamination with <1mm, friction coefficient 0.55.
Bruto USPP 260800Z 09006MPS CAVOK 10/03 Q1011 R03/190055 NOSIG RMK QFE748

VFR

10°C / 4°C

[Más]
Viento 90º 12kt
Visibilidad >10km
Tiempo -
Nubes Clouds and Visibility OK
Presión 1011
Cambiar No Significant change. Runway 03: Damp, 51-100% contamination with <1mm, friction coefficient 0.55.
Bruto USPP 260730Z 09006MPS CAVOK 10/04 Q1011 R03/190055 NOSIG RMK QFE748

VFR

9°C / 4°C

[Más]
Viento 90º 12kt
Visibilidad >10km
Tiempo Light Rain 1.00mm precipitation
Nubes Vertical Visibility of 0ft.
Presión 1011
Cambiar No Significant change. Runway 03: Damp, 51-100% contamination with <1mm, friction coefficient 0.55.
Bruto USPP 260700Z 09006MPS 9999 -RA NSC 09/04 Q1011 R03/190055 NOSIG RMK QFE748

VFR

9°C / 4°C

[Más]
Viento 90º 14kt
Visibilidad >10km
Tiempo Light Rain 1.00mm precipitation
Nubes Vertical Visibility of 0ft.
Presión 1011
Cambiar No Significant change. Runway 03: Damp, 51-100% contamination with <1mm, friction coefficient 0.55.
Bruto USPP 260630Z 09007MPS 9999 -RA NSC 09/04 Q1011 R03/190055 NOSIG RMK QFE748

VFR

9°C / 4°C

[Más]
Viento 90º 14kt
Visibilidad >10km
Tiempo -
Nubes Clouds and Visibility OK
Presión 1011
Cambiar No Significant change. Runway 03: Damp, 51-100% contamination with <1mm, friction coefficient 0.55.
Bruto USPP 260600Z 09007MPS CAVOK 09/04 Q1011 R03/190055 NOSIG RMK QFE748

VFR

9°C / 5°C

[Más]
Viento 80º 12kt
Visibilidad >10km
Tiempo -
Nubes Clouds and Visibility OK
Presión 1011
Cambiar No Significant change. Runway 03: Damp, 51-100% contamination with <1mm, friction coefficient 0.55.
Bruto USPP 260530Z 08006MPS CAVOK 09/05 Q1011 R03/190055 NOSIG RMK QFE748

VFR

9°C / 5°C

[Más]
Viento 100º 12kt
Visibilidad >10km
Tiempo -
Nubes Clouds and Visibility OK
Presión 1012
Cambiar No Significant change. Runway 03: Damp, 51-100% contamination with <1mm, friction coefficient 0.55.
Bruto USPP 260500Z 10006MPS CAVOK 09/05 Q1012 R03/190055 NOSIG RMK QFE748

VFR

9°C / 6°C

[Más]
Viento 110º 14kt
Visibilidad >10km
Tiempo Light Rain 1.00mm precipitation
Nubes Vertical Visibility of 0ft.
Presión 1012
Cambiar No Significant change. Runway 21: Damp, 51-100% contamination with <1mm, friction coefficient 0.55.
Bruto USPP 260430Z 11007MPS 9999 -RA NSC 09/06 Q1012 R21/190055 NOSIG RMK QFE748

VFR

9°C / 5°C

[Más]
Viento 120º 14kt
Visibilidad >10km
Tiempo Light Rain 1.00mm precipitation
Nubes Vertical Visibility of 0ft.
Presión 1012
Cambiar No Significant change. Runway 21: Damp, 51-100% contamination with <1mm, friction coefficient 0.55.
Bruto USPP 260400Z 12007MPS 9999 -RA NSC 09/05 Q1012 R21/190055 NOSIG RMK QFE748

VFR

9°C / 5°C

[Más]
Viento 120º 16kt
Visibilidad >10km
Tiempo -
Nubes Clouds and Visibility OK
Presión 1012
Cambiar No Significant change. Runway 21: Damp, 51-100% contamination with <1mm, friction coefficient 0.55.
Bruto USPP 260330Z 12008MPS CAVOK 09/05 Q1012 R21/190055 NOSIG RMK QFE748

TAF a 57.92°N 56.02°E (USPP)

From till


From till Wind 100º 10kt. Gust 31kt. Visibility 8000m. Broken Clouds 1600ft.
Temporarly from till Light Showers Rain . Broken Clouds 1600ft.

Bruto: TAF USPP 261355Z 2615/2715 10005G16MPS 8000 BKN016 TEMPO 2615/2710 -SHRA BKN016CB

Imágenes actuales de satélite y lluvia para 57.92°N 56.02°E

El marcador de lugar se coloca en 57.92°N 56.02°E. [Más]

La imagen de satélite en tiempo real se aprovecha de la combinación de bandas de la luz visible y de la luz infrarrojo. Como se puede detectar cambios de temperaturas atreves de la banda infrarrojo, la imagen no está escura de noche. No obstante, la niebla y las nubes bajas son apenas visibles en las imágenes infrarrojo como las diferencias de temperaturas entre el suelo y la niebla son muy pequeñas. Por eso son casi invisibles durante la noche. Las imágenes de satélite del Meteosat (Europa) son actualizados en tiempo real cada 5 minutos. Las imágenes del GOES-16/GOES-17 (América del Norte y América del Sur) y Himawari (Asia) son actualizados cada 10 minutos.

Copyright 2021 EUMETSAT / meteoblue. / Copyright 2021 meteoblue

Radar y precipitación nowcast para 57.92°N 56.02°E

llovizna
Leve
Moderado
Fuerte
Muy fuerte
Granizo

El marcador de lugar se coloca en 57.92°N 56.02°E. Esta animación muestra lo radar de precipitaciones hasta la última hora, así como la 1h previsión. Las lloviznas o las nevadas ligeras pueden ser invisibles para el radar. La intensidad de la precipitación está codificada por colores, que van del azul claro al naranja.